Capitol Logistics 2194

Operating for AJT



KCVG
Cincinnati/Northern Kentucky International Airport
Covington, Kentucky
KDEN
Denver International Airport
Denver, Colorado

Activity Log

Date Flight Route Aircraft Duration
05/18/2022 CPX2194 LOVEY6 AXC SPI J80 MCI J24 OATHE CLASH4 B752 2h 58m

Route Details

Aircraft Information
Group: Boeing Common
Types: B752,B762,B763
Route Data
Demand: H
Distance: 928nm
Duration: 2h 27m
Recm'd Route: LOVEY6 AXC SPI IRK EAR BRWRY LAWGR2
Origin Wx: KCVG 241952Z VRB05KT 10SM FEW040 FEW230 BKN300 23/14 A3012 RMK AO2 SLP193 T02280144
Dest. Wx: KDEN 241953Z 07009KT 10SM BKN022 OVC100 09/04 A3001 RMK AO2 SLP139 T00940039
Notes:

Financial History
Total Freight: 61,245lbs
Average Load: 61,245lbs/flt
Fuel Used: 23,984lbs
Avg. Fuel Used: 23,984lbs/flt
Fuel Expense: $16,309
Avg. Fuel Expense: $16,309
Avg. Fuel Cost: $0.68/lbs
Total Gross Income: $156,175
Pilot Pay: $119
Total Expenses: $23,822
Total Revenue: $115,736
Average Revenue: $156,174.75